Главная страница
METAR-TAF:

METAR-TAF

Аэропорты :

Al Jawf, Саудовская Аравия

широта: 29-47N, долгота: 040-06E, высота над уровнем моря: 689 м

Текущие метеонаблюдения

Эта сводка был подготовлена 55 минут назад, в 01:00 UTC
Ветер 8 Узел от северно-северо-западный
Температура 29°C
Влажность 35%
Давление 1007 hPa
Видимость 10 км и более
Нет облачности ниже 1500 м, и нет кучево-дождевой облачности

METAR: OESK 240100Z 33008KT CAVOK 29/12 Q1007

Время: 04:55 (01:55 UTC)

Прогноз

Эта сводка был подготовлена 2 часа и 55 минут назад, в 23:00 UTC
Прогноз действительный с 24-го 00 UTC до 25-го 06 UTC
Ветер 3 Узел переменных направлений
Видимость 10 км и более
Нет облачности ниже 1500 м, и нет кучево-дождевой облачности
изменения
С 24-го 06 UTC до 24-го 08 UTC
Ветер 14 Узел от западный

TAF: OESK 232300Z 2400/2506 VRB03KT CAVOK BECMG 2406/2408 28014KT

Метеонаблюдения и прогнозы для более 4000 аэропортов (сводки METAR и TAF).

Имеющиеся станции представлены на карте желтыми и красными точками.

Чтобы увидеть название станции, наведите на нее мышь.

Затем щелкните, чтобы увидеть метеонаблюдения и метеопрогнозы.

Управление картой: чтобы увеличить масштаб, щелкните зеленые кнопки с черным крестиком; чтобы уменьшить масштаб, щелкните зеленую кнопку с тире; для просмотра соседних карт щелкайте зеленые стрелки.


METAR-TAF: